x

Yucatan Basin - 120 Nm Ese Of Cozumel, Mx (42056) Wave Buoy

4:50am - Fri 3rd Jul 2015 All times are CDT. -5 hours from GMT.

  • Sig Wave height 3.9ft
  • Swell Direction
  • Peak Period 6s
  • Average Period 5s
  • Wind
    11mph, 13mph gusts
  • Sea Temp 84°f
  • Air Temp 83°f
  • Sea Pressure 1013.8mb
  •  Yucatan Basin - 120 Nm Ese Of Cozumel, Mx
  •  Yucatan Basin - 120 Nm Ese Of Cozumel, Mx

More Historic Weather Station data

Upgrade to MSW Pro to gain access to the past 30 days of data for over 8000 Wavebouys and Weather Stations around the globe.

Join Pro

Comparision Forecast

View Surf forecast
   
Fri 07/03 4:50am 4ft 6s 5s 11 13 mph 1013.8mb 84f 83f
3:50am 4ft 8s 5s 16
mph
1013.6mb 84f 83f
2:50am 4ft 7s 5s 13 16 mph 1013.8mb 84f 83f
1:50am 3.5ft 8s 5s 11 13 mph 1014.5mb 84f 83f
12:50am 3.5ft 8s 5s 13 16 mph 1015.2mb 84f 84f
Thu 07/02 11:50pm 4.5ft 7s 5s 16 18 mph 1016mb 84f 84f
10:50pm 4.5ft 8s 5s 16 18 mph 1016.3mb 84f 84f
9:50pm 4ft 7s 5s 13 16 mph 1016mb 84f 84f
8:50pm 4.5ft 7s 5s 16 18 mph 1015.2mb 84f 84f
7:50pm 4.5ft 8s 5s 16 18 mph 1015mb 84f 84f
6:50pm 4.5ft 8s 5s 18 20 mph 1014.4mb 84f 84f
5:50pm 4ft 8s 5s 13 16 mph 1014.5mb 84f 85f
4:50pm 4.5ft 8s 5s 16 18 mph 1014.1mb 84f 84f
3:50pm 4.5ft 8s 5s 13 16 mph 1014.3mb 85f 84f
2:50pm 4.5ft 6s 5s 13 16 mph 1014.6mb 84f 84f
1:50pm 4.5ft 5s 5s 13 16 mph 1015.2mb 84f 84f
12:50pm 4.5ft 6s 5s 16 18 mph 1015.7mb 84f 84f
11:50am 4.5ft 6s 5s 16 18 mph 1016.2mb 84f 83f
10:50am 4.5ft 5s 5s 18 22 mph 1016.1mb 84f 83f
9:50am 4.5ft 7s 5s 18 20 mph 1015.7mb 84f 83f
8:50am 4.5ft 7s 5s 18 22 mph 1015.8mb 84f 81f
7:50am 4.5ft 6s 5s 18 22 mph 1015.5mb 84f 83f
6:50am 3.5ft 7s 5s 16 20 mph 1015mb 84f 83f
5:50am 4ft 6s 5s 13 18 mph 1014.4mb 84f 83f
4:50am 4.5ft 6s 5s 13 16 mph 1014.4mb 84f 83f
3:50am 4.5ft 6s 5s 16 18 mph 1014.8mb 84f 83f
2:50am 4ft 8s 5s 13 16 mph 1015.1mb 84f 83f
1:50am 4.5ft 6s 5s 16 18 mph 1015.2mb 84f 84f
12:50am 4ft 6s 5s 16 18 mph 1015.8mb 84f 84f
Wed 07/01 11:50pm 3.5ft 5s 5s 2 7 mph 1016.4mb 84f 80f
10:50pm 4ft 5s 5s 9 11 mph 1016.6mb 84f 81f
9:50pm 3.5ft 5s 5s 16 18 mph 1015.9mb 84f 84f
8:50pm 3.5ft 6s 5s 13 16 mph 1015.5mb 84f 84f
7:50pm 4ft 6s 5s 13 16 mph 1014.9mb 84f 84f
6:50pm 4ft 7s 5s 13 16 mph 1014.6mb 84f 85f
5:50pm 3.5ft 5s 4s 16 20 mph 1014.1mb 84f 85f
4:50pm 4ft 5s 5s 16 18 mph 1014.5mb 84f 85f
3:50pm 4ft 5s 5s 16 18 mph 1015.1mb 84f 85f
2:50pm 4ft 8s 5s 18 20 mph 1015mb 84f 85f
1:50pm 3.5ft 9s 5s 13 16 mph 1015.4mb 84f 84f
12:50pm 4ft 8s 5s 11 13 mph 1016.1mb 84f 82f
11:50am 3.5ft 7s 5s 27 38 mph 1016.3mb 84f 81f
10:50am 3.5ft 7s 5s 18 22 mph 1016.4mb 84f 84f
9:50am 3.5ft 6s 5s 16 18 mph 1016.3mb 84f 84f
8:50am 3.5ft 9s 5s 16 20 mph 1016.4mb 84f 84f
7:50am 3.5ft 8s 5s 16 18 mph 1016.3mb 84f 84f
6:50am 3.5ft 6s 5s 16 18 mph 1016.2mb 84f 84f
4:50am 3.5ft 9s 5s 13 16 mph 1015.7mb 84f 84f
3:50am 3.5ft 7s 5s 16 18 mph 1015.8mb 84f 84f
2:50am 3.5ft 9s 5s 13 18 mph 1015.9mb 84f 84f
1:50am 3.5ft 8s 5s 13 16 mph 1016.6mb 84f 84f
12:50am 3.5ft 7s 5s 13 16 mph 1017mb 84f 84f
Tue 06/30 11:50pm 4ft 7s 5s 13 16 mph 1017.5mb 84f 84f
10:50pm 4ft 9s 5s 16 18 mph 1017.7mb 84f 84f
9:50pm 4ft 6s 5s 16 18 mph 1017.1mb 84f 84f
8:50pm 4.5ft 7s 5s 13 16 mph 1016.7mb 84f 84f
7:50pm 4.5ft 6s 5s 13 16 mph 1016.7mb 84f 84f
6:50pm 4ft 7s 5s 13 16 mph 1016.7mb 84f 84f
5:50pm 4.5ft 10s 5s 9 11 mph 1016.4mb 84f 84f
4:50pm 4.5ft 8s 5s 11 13 mph 1016.4mb 85f 84f
3:50pm 4ft 7s 5s 13 16 mph 1016.6mb 85f 84f
2:50pm 4ft 7s 5s 16 18 mph 1016.5mb 84f 84f
1:50pm 3.5ft 6s 5s 16 18 mph 1016.9mb 84f 84f
12:50pm 4ft 9s 5s 16 18 mph 1017.4mb 84f 84f
11:50am 3.5ft 5s 4s 16 18 mph 1017.6mb 84f 84f
10:50am 3.5ft 6s 5s 16 18 mph 1017.7mb 84f 84f
9:50am 3.5ft 6s 5s 16 18 mph 1017.6mb 84f 84f
8:50am 3.5ft 6s 5s 13 16 mph 1017.8mb 84f 84f
7:50am 3.5ft 9s 5s 16 18 mph 1017.5mb 84f 84f
6:50am 3.5ft 5s 4s 16 18 mph 1017.1mb 84f 84f
5:50am 4ft 9s 5s 18 20 mph 1016.5mb 84f 84f
4:50am 3.5ft 10s 5s 16 20 mph 1016.3mb 84f 84f
3:50am 3.5ft 8s 5s 16 20 mph 1016.2mb 84f 84f
2:50am 3.5ft 9s 5s 18 22 mph 1016.3mb 84f 84f
1:50am 3.5ft 9s 5s 13 16 mph 1016.9mb 84f 84f
12:50am 3.5ft 9s 5s 16 18 mph 1017.7mb 84f 84f
Mon 06/29 11:50pm 4ft 9s 5s 16 18 mph 1018.2mb 84f 84f
10:50pm 3.5ft 9s 5s 18 20 mph 1018.3mb 84f 84f
9:50pm 3.5ft 5s 5s 16 18 mph 1017.5mb 84f 84f
8:50pm 3.5ft 8s 5s 16 18 mph 1016.9mb 84f 84f
7:50pm 4.5ft 9s 5s 16 18 mph 1016.2mb 84f 85f
6:50pm 4ft 9s 5s 16 18 mph 1016.1mb 84f 84f
5:50pm 4ft 9s 5s 18 20 mph 1015.9mb 84f 84f
4:50pm 4ft 5s 5s 16 18 mph 1015.8mb 84f 85f
3:50pm 4ft 9s 5s 16 20 mph 1016.2mb 84f 85f
2:50pm 4ft 6s 5s 16 18 mph 1016.7mb 84f 85f
1:50pm 4ft 9s 5s 16 18 mph 1017.1mb 84f 84f
12:50pm 4.5ft 9s 5s 16 18 mph 1017.2mb 84f 84f
11:50am 4ft 9s 5s 16 18 mph 1017.3mb 84f 84f
10:50am 4ft 9s 5s 16 18 mph 1017.5mb 84f 84f